sensor_id;sensor_type;location;lat;lon;timestamp;temperature;humidity
14798;DHT22;7490;63.708;20.368;2022-09-24T00:01:12;15.30;99.70
14798;DHT22;7490;63.708;20.368;2022-09-24T00:03:39;15.30;99.70
14798;DHT22;7490;63.708;20.368;2022-09-24T00:06:06;15.30;99.70
14798;DHT22;7490;63.708;20.368;2022-09-24T00:08:33;15.20;99.70
14798;DHT22;7490;63.708;20.368;2022-09-24T00:11:02;15.30;99.70
14798;DHT22;7490;63.708;20.368;2022-09-24T00:13:29;15.20;99.70
14798;DHT22;7490;63.708;20.368;2022-09-24T00:15:54;15.20;99.60
14798;DHT22;7490;63.708;20.368;2022-09-24T00:18:20;15.30;99.70
14798;DHT22;7490;63.708;20.368;2022-09-24T00:20:47;15.30;99.70
14798;DHT22;7490;63.708;20.368;2022-09-24T00:23:13;15.20;99.60
14798;DHT22;7490;63.708;20.368;2022-09-24T00:25:43;15.20;99.80
14798;DHT22;7490;63.708;20.368;2022-09-24T00:28:28;15.20;99.90
14798;DHT22;7490;63.708;20.368;2022-09-24T00:30:54;15.20;99.90
14798;DHT22;7490;63.708;20.368;2022-09-24T00:33:27;15.20;99.90
14798;DHT22;7490;63.708;20.368;2022-09-24T00:35:57;15.30;99.90
14798;DHT22;7490;63.708;20.368;2022-09-24T00:38:23;15.30;99.90
14798;DHT22;7490;63.708;20.368;2022-09-24T00:40:50;15.30;99.90
14798;DHT22;7490;63.708;20.368;2022-09-24T00:43:32;15.30;99.90
14798;DHT22;7490;63.708;20.368;2022-09-24T00:46:46;15.30;99.90
14798;DHT22;7490;63.708;20.368;2022-09-24T00:49:14;15.30;99.90
14798;DHT22;7490;63.708;20.368;2022-09-24T00:51:42;15.30;99.90
14798;DHT22;7490;63.708;20.368;2022-09-24T00:54:15;15.30;99.90
14798;DHT22;7490;63.708;20.368;2022-09-24T00:56:43;15.20;99.90
14798;DHT22;7490;63.708;20.368;2022-09-24T00:59:12;15.20;99.90
14798;DHT22;7490;63.708;20.368;2022-09-24T01:01:45;15.20;99.90
14798;DHT22;7490;63.708;20.368;2022-09-24T01:04:13;15.20;99.90
14798;DHT22;7490;63.708;20.368;2022-09-24T01:06:40;15.20;99.90
14798;DHT22;7490;63.708;20.368;2022-09-24T01:09:07;15.20;99.90
14798;DHT22;7490;63.708;20.368;2022-09-24T01:11:44;15.20;99.90
14798;DHT22;7490;63.708;20.368;2022-09-24T01:30:58;15.20;99.90
14798;DHT22;7490;63.708;20.368;2022-09-24T01:33:27;15.20;99.90
14798;DHT22;7490;63.708;20.368;2022-09-24T01:35:58;15.20;99.90
14798;DHT22;7490;63.708;20.368;2022-09-24T01:38:31;15.20;99.90
14798;DHT22;7490;63.708;20.368;2022-09-24T01:41:00;15.20;99.90
14798;DHT22;7490;63.708;20.368;2022-09-24T01:43:28;15.20;99.90
14798;DHT22;7490;63.708;20.368;2022-09-24T01:45:55;15.20;99.90
14798;DHT22;7490;63.708;20.368;2022-09-24T01:48:25;15.20;99.90
14798;DHT22;7490;63.708;20.368;2022-09-24T01:53:52;15.20;99.90
14798;DHT22;7490;63.708;20.368;2022-09-24T01:56:27;15.10;99.90
14798;DHT22;7490;63.708;20.368;2022-09-24T01:59:04;15.20;99.90
14798;DHT22;7490;63.708;20.368;2022-09-24T02:01:49;15.10;99.90
14798;DHT22;7490;63.708;20.368;2022-09-24T02:04:18;15.10;99.90
14798;DHT22;7490;63.708;20.368;2022-09-24T02:06:58;15.10;99.90
14798;DHT22;7490;63.708;20.368;2022-09-24T02:09:37;15.10;99.90
14798;DHT22;7490;63.708;20.368;2022-09-24T02:14:35;15.10;99.90
14798;DHT22;7490;63.708;20.368;2022-09-24T02:17:03;15.10;99.90
14798;DHT22;7490;63.708;20.368;2022-09-24T02:19:30;15.10;99.90
14798;DHT22;7490;63.708;20.368;2022-09-24T02:21:58;15.10;99.90
14798;DHT22;7490;63.708;20.368;2022-09-24T02:24:47;15.10;99.90
14798;DHT22;7490;63.708;20.368;2022-09-24T02:27:14;15.10;99.90
14798;DHT22;7490;63.708;20.368;2022-09-24T02:29:39;15.20;99.90
14798;DHT22;7490;63.708;20.368;2022-09-24T02:32:08;15.10;99.90
14798;DHT22;7490;63.708;20.368;2022-09-24T02:34:38;15.10;99.90
14798;DHT22;7490;63.708;20.368;2022-09-24T02:37:08;15.10;99.90
14798;DHT22;7490;63.708;20.368;2022-09-24T02:39:33;15.10;99.90
14798;DHT22;7490;63.708;20.368;2022-09-24T02:42:02;15.10;99.90
14798;DHT22;7490;63.708;20.368;2022-09-24T02:44:30;15.10;99.90
14798;DHT22;7490;63.708;20.368;2022-09-24T02:46:56;15.10;99.90
14798;DHT22;7490;63.708;20.368;2022-09-24T02:49:22;15.10;99.90
14798;DHT22;7490;63.708;20.368;2022-09-24T02:51:47;15.10;99.90
14798;DHT22;7490;63.708;20.368;2022-09-24T02:54:13;15.20;99.90
14798;DHT22;7490;63.708;20.368;2022-09-24T02:56:39;15.10;99.90
14798;DHT22;7490;63.708;20.368;2022-09-24T02:59:05;15.10;99.90
14798;DHT22;7490;63.708;20.368;2022-09-24T03:01:32;15.10;99.90
14798;DHT22;7490;63.708;20.368;2022-09-24T03:03:58;15.20;99.90
14798;DHT22;7490;63.708;20.368;2022-09-24T03:06:24;15.20;99.90
14798;DHT22;7490;63.708;20.368;2022-09-24T03:08:50;15.20;99.90
14798;DHT22;7490;63.708;20.368;2022-09-24T03:11:18;15.20;99.90
14798;DHT22;7490;63.708;20.368;2022-09-24T03:13:44;15.20;99.90
14798;DHT22;7490;63.708;20.368;2022-09-24T03:16:09;15.20;99.90
14798;DHT22;7490;63.708;20.368;2022-09-24T03:18:35;15.10;99.90
14798;DHT22;7490;63.708;20.368;2022-09-24T03:21:04;15.10;99.90
14798;DHT22;7490;63.708;20.368;2022-09-24T03:23:31;15.10;99.90
14798;DHT22;7490;63.708;20.368;2022-09-24T03:25:57;15.10;99.90
14798;DHT22;7490;63.708;20.368;2022-09-24T03:28:22;15.10;99.90
14798;DHT22;7490;63.708;20.368;2022-09-24T03:30:48;15.10;99.90
14798;DHT22;7490;63.708;20.368;2022-09-24T03:33:35;15.00;99.90
14798;DHT22;7490;63.708;20.368;2022-09-24T03:36:06;15.00;99.90
14798;DHT22;7490;63.708;20.368;2022-09-24T03:38:33;15.00;99.90
14798;DHT22;7490;63.708;20.368;2022-09-24T03:41:00;15.00;99.90
14798;DHT22;7490;63.708;20.368;2022-09-24T03:43:26;15.00;99.90
14798;DHT22;7490;63.708;20.368;2022-09-24T03:45:52;15.00;99.90
14798;DHT22;7490;63.708;20.368;2022-09-24T03:48:19;15.00;99.90
14798;DHT22;7490;63.708;20.368;2022-09-24T03:50:45;15.00;99.90
14798;DHT22;7490;63.708;20.368;2022-09-24T03:53:12;15.00;99.90
14798;DHT22;7490;63.708;20.368;2022-09-24T03:55:42;15.00;99.90
14798;DHT22;7490;63.708;20.368;2022-09-24T03:58:08;15.00;99.90
14798;DHT22;7490;63.708;20.368;2022-09-24T04:00:34;15.00;99.90
14798;DHT22;7490;63.708;20.368;2022-09-24T04:03:00;14.90;99.90
14798;DHT22;7490;63.708;20.368;2022-09-24T04:05:25;14.90;99.90
14798;DHT22;7490;63.708;20.368;2022-09-24T04:07:51;15.00;99.90
14798;DHT22;7490;63.708;20.368;2022-09-24T04:10:16;15.00;99.90
14798;DHT22;7490;63.708;20.368;2022-09-24T04:12:42;15.00;99.90
14798;DHT22;7490;63.708;20.368;2022-09-24T04:15:09;15.00;99.90
14798;DHT22;7490;63.708;20.368;2022-09-24T04:17:35;15.00;99.90
14798;DHT22;7490;63.708;20.368;2022-09-24T04:20:00;15.00;99.90
14798;DHT22;7490;63.708;20.368;2022-09-24T04:22:26;15.00;99.90
14798;DHT22;7490;63.708;20.368;2022-09-24T04:24:55;15.00;99.90
14798;DHT22;7490;63.708;20.368;2022-09-24T04:27:21;15.00;99.90
14798;DHT22;7490;63.708;20.368;2022-09-24T04:29:47;15.00;99.90
14798;DHT22;7490;63.708;20.368;2022-09-24T04:32:12;15.00;99.90
14798;DHT22;7490;63.708;20.368;2022-09-24T04:34:38;15.00;99.90
14798;DHT22;7490;63.708;20.368;2022-09-24T04:37:04;15.00;99.90
14798;DHT22;7490;63.708;20.368;2022-09-24T04:39:30;15.00;99.90
14798;DHT22;7490;63.708;20.368;2022-09-24T04:41:56;15.00;99.90
14798;DHT22;7490;63.708;20.368;2022-09-24T04:44:22;15.00;99.90
14798;DHT22;7490;63.708;20.368;2022-09-24T04:46:49;15.00;99.90
14798;DHT22;7490;63.708;20.368;2022-09-24T04:49:14;15.00;99.90
14798;DHT22;7490;63.708;20.368;2022-09-24T04:51:40;15.00;99.90
14798;DHT22;7490;63.708;20.368;2022-09-24T04:54:07;15.00;99.90
14798;DHT22;7490;63.708;20.368;2022-09-24T04:56:33;15.00;99.90
14798;DHT22;7490;63.708;20.368;2022-09-24T04:58:58;15.00;99.90
14798;DHT22;7490;63.708;20.368;2022-09-24T05:01:24;15.00;99.90
14798;DHT22;7490;63.708;20.368;2022-09-24T05:03:50;15.00;99.90
14798;DHT22;7490;63.708;20.368;2022-09-24T05:06:15;15.00;99.90
14798;DHT22;7490;63.708;20.368;2022-09-24T05:08:41;15.00;99.90
14798;DHT22;7490;63.708;20.368;2022-09-24T05:11:07;15.00;99.90
14798;DHT22;7490;63.708;20.368;2022-09-24T05:13:33;15.00;99.90
14798;DHT22;7490;63.708;20.368;2022-09-24T05:16:01;15.00;99.90
14798;DHT22;7490;63.708;20.368;2022-09-24T05:18:27;15.00;99.90
14798;DHT22;7490;63.708;20.368;2022-09-24T05:20:53;15.00;99.90
14798;DHT22;7490;63.708;20.368;2022-09-24T05:23:18;15.10;99.90
14798;DHT22;7490;63.708;20.368;2022-09-24T05:25:46;15.10;99.90
14798;DHT22;7490;63.708;20.368;2022-09-24T05:28:47;15.10;99.90
14798;DHT22;7490;63.708;20.368;2022-09-24T05:31:13;15.10;99.90
14798;DHT22;7490;63.708;20.368;2022-09-24T05:33:39;15.10;99.90
14798;DHT22;7490;63.708;20.368;2022-09-24T05:36:04;15.10;99.90
14798;DHT22;7490;63.708;20.368;2022-09-24T05:38:30;15.10;99.90
14798;DHT22;7490;63.708;20.368;2022-09-24T05:40:57;15.10;99.90
14798;DHT22;7490;63.708;20.368;2022-09-24T05:43:23;15.10;99.90
14798;DHT22;7490;63.708;20.368;2022-09-24T05:45:52;15.10;99.90
14798;DHT22;7490;63.708;20.368;2022-09-24T05:48:19;15.10;99.90
14798;DHT22;7490;63.708;20.368;2022-09-24T05:50:45;15.10;99.90
14798;DHT22;7490;63.708;20.368;2022-09-24T05:53:11;15.10;99.90
14798;DHT22;7490;63.708;20.368;2022-09-24T05:55:37;15.10;99.90
14798;DHT22;7490;63.708;20.368;2022-09-24T05:58:05;15.10;99.90
14798;DHT22;7490;63.708;20.368;2022-09-24T06:00:32;15.20;99.90
14798;DHT22;7490;63.708;20.368;2022-09-24T06:03:05;15.20;99.90
14798;DHT22;7490;63.708;20.368;2022-09-24T06:05:33;15.30;99.90
14798;DHT22;7490;63.708;20.368;2022-09-24T06:08:01;15.30;99.90
14798;DHT22;7490;63.708;20.368;2022-09-24T06:10:27;15.30;99.90
14798;DHT22;7490;63.708;20.368;2022-09-24T06:12:53;15.40;99.90
14798;DHT22;7490;63.708;20.368;2022-09-24T06:15:19;15.40;99.90
14798;DHT22;7490;63.708;20.368;2022-09-24T06:17:45;15.40;99.90
14798;DHT22;7490;63.708;20.368;2022-09-24T06:20:11;15.50;99.90
14798;DHT22;7490;63.708;20.368;2022-09-24T06:22:38;15.50;99.90
14798;DHT22;7490;63.708;20.368;2022-09-24T06:25:05;15.60;99.90
14798;DHT22;7490;63.708;20.368;2022-09-24T06:27:31;15.70;99.90
14798;DHT22;7490;63.708;20.368;2022-09-24T06:29:57;15.70;99.90
14798;DHT22;7490;63.708;20.368;2022-09-24T06:32:23;15.70;99.90
14798;DHT22;7490;63.708;20.368;2022-09-24T06:34:49;15.80;99.90
14798;DHT22;7490;63.708;20.368;2022-09-24T06:37:15;15.80;99.90
14798;DHT22;7490;63.708;20.368;2022-09-24T06:39:41;15.80;99.90
14798;DHT22;7490;63.708;20.368;2022-09-24T06:42:07;15.80;99.90
14798;DHT22;7490;63.708;20.368;2022-09-24T06:44:33;15.80;99.90
14798;DHT22;7490;63.708;20.368;2022-09-24T06:46:59;15.80;99.90
14798;DHT22;7490;63.708;20.368;2022-09-24T06:49:26;15.80;99.90
14798;DHT22;7490;63.708;20.368;2022-09-24T06:51:55;15.80;99.80
14798;DHT22;7490;63.708;20.368;2022-09-24T06:54:23;15.80;99.80
14798;DHT22;7490;63.708;20.368;2022-09-24T06:56:48;15.80;99.70
14798;DHT22;7490;63.708;20.368;2022-09-24T06:59:15;15.80;99.90
14798;DHT22;7490;63.708;20.368;2022-09-24T07:01:41;15.80;99.80
14798;DHT22;7490;63.708;20.368;2022-09-24T07:04:07;15.80;99.80
14798;DHT22;7490;63.708;20.368;2022-09-24T07:06:35;15.80;99.70
14798;DHT22;7490;63.708;20.368;2022-09-24T07:09:20;15.80;99.60
14798;DHT22;7490;63.708;20.368;2022-09-24T07:11:46;15.80;99.60
14798;DHT22;7490;63.708;20.368;2022-09-24T07:14:12;15.80;99.60
14798;DHT22;7490;63.708;20.368;2022-09-24T07:16:38;15.90;99.70
14798;DHT22;7490;63.708;20.368;2022-09-24T07:19:04;15.90;99.60
14798;DHT22;7490;63.708;20.368;2022-09-24T07:21:29;16.00;99.50
14798;DHT22;7490;63.708;20.368;2022-09-24T07:23:55;16.00;99.30
14798;DHT22;7490;63.708;20.368;2022-09-24T07:26:21;16.00;99.20
14798;DHT22;7490;63.708;20.368;2022-09-24T07:28:46;16.00;99.30
14798;DHT22;7490;63.708;20.368;2022-09-24T07:31:12;16.00;99.20
14798;DHT22;7490;63.708;20.368;2022-09-24T07:33:38;16.00;99.10
14798;DHT22;7490;63.708;20.368;2022-09-24T07:36:05;16.00;99.10
14798;DHT22;7490;63.708;20.368;2022-09-24T07:38:34;15.80;99.10
14798;DHT22;7490;63.708;20.368;2022-09-24T07:41:01;16.00;99.20
14798;DHT22;7490;63.708;20.368;2022-09-24T07:43:29;16.10;99.20
14798;DHT22;7490;63.708;20.368;2022-09-24T07:45:56;16.10;99.10
14798;DHT22;7490;63.708;20.368;2022-09-24T07:48:22;16.10;99.00
14798;DHT22;7490;63.708;20.368;2022-09-24T07:50:48;16.10;99.10
14798;DHT22;7490;63.708;20.368;2022-09-24T07:53:15;16.20;99.20
14798;DHT22;7490;63.708;20.368;2022-09-24T07:55:41;16.20;99.10
14798;DHT22;7490;63.708;20.368;2022-09-24T07:58:11;16.30;99.10
14798;DHT22;7490;63.708;20.368;2022-09-24T08:00:38;16.30;99.10
14798;DHT22;7490;63.708;20.368;2022-09-24T08:03:05;16.40;99.20
14798;DHT22;7490;63.708;20.368;2022-09-24T08:05:31;16.40;99.20
14798;DHT22;7490;63.708;20.368;2022-09-24T08:07:58;16.50;99.00
14798;DHT22;7490;63.708;20.368;2022-09-24T08:10:25;16.50;98.90
14798;DHT22;7490;63.708;20.368;2022-09-24T08:12:51;16.60;98.90
14798;DHT22;7490;63.708;20.368;2022-09-24T08:15:18;16.70;99.00
14798;DHT22;7490;63.708;20.368;2022-09-24T08:17:44;16.70;98.80
14798;DHT22;7490;63.708;20.368;2022-09-24T08:20:10;16.80;98.70
14798;DHT22;7490;63.708;20.368;2022-09-24T08:22:37;16.80;98.60
14798;DHT22;7490;63.708;20.368;2022-09-24T08:25:03;16.90;98.40
14798;DHT22;7490;63.708;20.368;2022-09-24T08:27:30;16.90;98.30
14798;DHT22;7490;63.708;20.368;2022-09-24T08:29:57;16.90;98.30
14798;DHT22;7490;63.708;20.368;2022-09-24T08:32:25;16.90;98.20
14798;DHT22;7490;63.708;20.368;2022-09-24T08:34:51;17.00;98.00
14798;DHT22;7490;63.708;20.368;2022-09-24T08:37:18;17.10;97.90
14798;DHT22;7490;63.708;20.368;2022-09-24T08:39:44;17.10;97.80
14798;DHT22;7490;63.708;20.368;2022-09-24T08:42:14;17.10;97.70
14798;DHT22;7490;63.708;20.368;2022-09-24T08:44:45;17.10;97.60
14798;DHT22;7490;63.708;20.368;2022-09-24T08:47:48;17.20;97.60
14798;DHT22;7490;63.708;20.368;2022-09-24T08:50:24;17.20;97.30
14798;DHT22;7490;63.708;20.368;2022-09-24T08:53:11;17.30;97.20
14798;DHT22;7490;63.708;20.368;2022-09-24T08:55:45;17.30;97.10
14798;DHT22;7490;63.708;20.368;2022-09-24T08:58:25;17.30;97.10
14798;DHT22;7490;63.708;20.368;2022-09-24T09:03:48;17.30;96.80
14798;DHT22;7490;63.708;20.368;2022-09-24T09:09:27;17.30;96.70
14798;DHT22;7490;63.708;20.368;2022-09-24T09:12:03;17.20;96.70
14798;DHT22;7490;63.708;20.368;2022-09-24T09:17:25;17.30;96.70
14798;DHT22;7490;63.708;20.368;2022-09-24T09:19:56;17.30;96.70
14798;DHT22;7490;63.708;20.368;2022-09-24T09:22:26;17.40;96.70
14798;DHT22;7490;63.708;20.368;2022-09-24T09:24:59;17.40;96.50
14798;DHT22;7490;63.708;20.368;2022-09-24T09:27:27;17.50;96.30
14798;DHT22;7490;63.708;20.368;2022-09-24T09:29:57;17.40;96.00
14798;DHT22;7490;63.708;20.368;2022-09-24T09:38:20;17.20;96.20
14798;DHT22;7490;63.708;20.368;2022-09-24T09:41:37;17.20;96.20
14798;DHT22;7490;63.708;20.368;2022-09-24T09:43:40;17.20;96.20
14798;DHT22;7490;63.708;20.368;2022-09-24T09:46:17;17.30;96.10
14798;DHT22;7490;63.708;20.368;2022-09-24T09:48:52;17.20;95.90
14798;DHT22;7490;63.708;20.368;2022-09-24T09:51:24;17.20;96.00
14798;DHT22;7490;63.708;20.368;2022-09-24T09:54:08;17.20;96.10
14798;DHT22;7490;63.708;20.368;2022-09-24T09:56:47;17.20;96.10
14798;DHT22;7490;63.708;20.368;2022-09-24T09:59:20;17.20;95.90
14798;DHT22;7490;63.708;20.368;2022-09-24T10:01:50;17.20;95.80
14798;DHT22;7490;63.708;20.368;2022-09-24T10:04:41;17.30;96.00
14798;DHT22;7490;63.708;20.368;2022-09-24T10:07:15;17.30;95.80
14798;DHT22;7490;63.708;20.368;2022-09-24T10:09:43;17.30;95.80
14798;DHT22;7490;63.708;20.368;2022-09-24T10:12:19;17.30;95.80
14798;DHT22;7490;63.708;20.368;2022-09-24T10:14:57;17.40;95.80
14798;DHT22;7490;63.708;20.368;2022-09-24T10:17:33;17.40;95.70
14798;DHT22;7490;63.708;20.368;2022-09-24T10:20:01;17.50;95.60
14798;DHT22;7490;63.708;20.368;2022-09-24T10:22:27;17.50;95.50
14798;DHT22;7490;63.708;20.368;2022-09-24T10:24:55;17.50;95.40
14798;DHT22;7490;63.708;20.368;2022-09-24T10:27:34;17.50;95.20
14798;DHT22;7490;63.708;20.368;2022-09-24T10:30:03;17.40;95.20
14798;DHT22;7490;63.708;20.368;2022-09-24T10:33:02;17.40;95.40
14798;DHT22;7490;63.708;20.368;2022-09-24T10:35:34;17.40;95.30
14798;DHT22;7490;63.708;20.368;2022-09-24T10:38:01;17.40;95.50
14798;DHT22;7490;63.708;20.368;2022-09-24T10:40:36;17.50;95.30
14798;DHT22;7490;63.708;20.368;2022-09-24T10:43:03;17.50;95.20
14798;DHT22;7490;63.708;20.368;2022-09-24T10:50:49;17.40;95.20
14798;DHT22;7490;63.708;20.368;2022-09-24T10:59:21;17.30;95.10
14798;DHT22;7490;63.708;20.368;2022-09-24T11:04:53;17.20;94.90
14798;DHT22;7490;63.708;20.368;2022-09-24T11:07:57;17.20;94.90
14798;DHT22;7490;63.708;20.368;2022-09-24T11:16:25;17.10;95.10
14798;DHT22;7490;63.708;20.368;2022-09-24T11:19:02;17.20;95.10
14798;DHT22;7490;63.708;20.368;2022-09-24T11:30:08;17.30;95.00
14798;DHT22;7490;63.708;20.368;2022-09-24T11:38:13;17.50;94.60
14798;DHT22;7490;63.708;20.368;2022-09-24T11:54:15;17.90;93.80
14798;DHT22;7490;63.708;20.368;2022-09-24T11:56:46;18.00;93.70
14798;DHT22;7490;63.708;20.368;2022-09-24T12:12:46;17.70;93.50
14798;DHT22;7490;63.708;20.368;2022-09-24T12:15:21;17.70;93.50
14798;DHT22;7490;63.708;20.368;2022-09-24T12:17:58;17.70;93.60
14798;DHT22;7490;63.708;20.368;2022-09-24T12:20:27;17.70;93.50
14798;DHT22;7490;63.708;20.368;2022-09-24T12:22:58;17.70;93.50
14798;DHT22;7490;63.708;20.368;2022-09-24T12:25:33;17.70;93.40
14798;DHT22;7490;63.708;20.368;2022-09-24T12:28:03;17.60;93.50
14798;DHT22;7490;63.708;20.368;2022-09-24T12:30:46;17.70;93.50
14798;DHT22;7490;63.708;20.368;2022-09-24T12:33:53;17.70;93.40
14798;DHT22;7490;63.708;20.368;2022-09-24T12:36:39;17.70;93.30
14798;DHT22;7490;63.708;20.368;2022-09-24T12:39:12;17.80;93.30
14798;DHT22;7490;63.708;20.368;2022-09-24T12:41:44;17.80;93.20
14798;DHT22;7490;63.708;20.368;2022-09-24T12:44:14;17.70;93.00
14798;DHT22;7490;63.708;20.368;2022-09-24T12:46:53;17.70;93.10
14798;DHT22;7490;63.708;20.368;2022-09-24T12:51:52;17.60;93.00
14798;DHT22;7490;63.708;20.368;2022-09-24T12:54:33;17.50;93.10
14798;DHT22;7490;63.708;20.368;2022-09-24T12:57:19;17.50;93.30
14798;DHT22;7490;63.708;20.368;2022-09-24T13:02:30;17.50;93.40
14798;DHT22;7490;63.708;20.368;2022-09-24T13:08:00;17.60;93.30
14798;DHT22;7490;63.708;20.368;2022-09-24T13:10:29;17.60;93.30
14798;DHT22;7490;63.708;20.368;2022-09-24T13:12:56;17.60;93.30
14798;DHT22;7490;63.708;20.368;2022-09-24T13:15:31;17.60;93.10
14798;DHT22;7490;63.708;20.368;2022-09-24T13:20:37;17.40;93.10
14798;DHT22;7490;63.708;20.368;2022-09-24T13:25:58;17.30;93.20
14798;DHT22;7490;63.708;20.368;2022-09-24T13:29:20;17.20;93.30
14798;DHT22;7490;63.708;20.368;2022-09-24T13:31:43;17.20;93.50
14798;DHT22;7490;63.708;20.368;2022-09-24T13:34:42;17.20;93.50
14798;DHT22;7490;63.708;20.368;2022-09-24T13:40:14;17.20;93.70
14798;DHT22;7490;63.708;20.368;2022-09-24T13:43:02;17.30;93.90
14798;DHT22;7490;63.708;20.368;2022-09-24T13:45:29;17.40;93.90
14798;DHT22;7490;63.708;20.368;2022-09-24T13:48:18;17.40;93.60
14798;DHT22;7490;63.708;20.368;2022-09-24T13:50:51;17.50;93.70
14798;DHT22;7490;63.708;20.368;2022-09-24T13:55:57;17.80;93.50
14798;DHT22;7490;63.708;20.368;2022-09-24T13:58:33;17.90;93.40
14798;DHT22;7490;63.708;20.368;2022-09-24T14:01:02;17.80;92.90
14798;DHT22;7490;63.708;20.368;2022-09-24T14:03:30;17.70;92.90
14798;DHT22;7490;63.708;20.368;2022-09-24T14:06:00;17.70;93.10
14798;DHT22;7490;63.708;20.368;2022-09-24T14:08:27;17.70;93.20
14798;DHT22;7490;63.708;20.368;2022-09-24T14:11:14;17.70;93.20
14798;DHT22;7490;63.708;20.368;2022-09-24T14:13:41;17.60;93.00
14798;DHT22;7490;63.708;20.368;2022-09-24T14:16:18;17.60;93.10
14798;DHT22;7490;63.708;20.368;2022-09-24T14:18:45;17.60;93.20
14798;DHT22;7490;63.708;20.368;2022-09-24T14:21:26;17.60;93.10
14798;DHT22;7490;63.708;20.368;2022-09-24T14:24:05;17.60;93.00
14798;DHT22;7490;63.708;20.368;2022-09-24T14:28:59;17.50;92.70
14798;DHT22;7490;63.708;20.368;2022-09-24T14:31:28;17.40;92.60
14798;DHT22;7490;63.708;20.368;2022-09-24T14:33:54;17.20;92.60
14798;DHT22;7490;63.708;20.368;2022-09-24T14:36:19;17.10;93.20
14798;DHT22;7490;63.708;20.368;2022-09-24T14:39:03;17.00;93.00
14798;DHT22;7490;63.708;20.368;2022-09-24T14:41:34;16.90;93.10
14798;DHT22;7490;63.708;20.368;2022-09-24T14:44:05;16.80;93.30
14798;DHT22;7490;63.708;20.368;2022-09-24T14:46:35;16.70;93.40
14798;DHT22;7490;63.708;20.368;2022-09-24T14:49:20;16.60;93.50
14798;DHT22;7490;63.708;20.368;2022-09-24T14:51:56;16.50;93.60
14798;DHT22;7490;63.708;20.368;2022-09-24T14:54:35;16.50;93.70
14798;DHT22;7490;63.708;20.368;2022-09-24T14:59:44;16.40;93.80
14798;DHT22;7490;63.708;20.368;2022-09-24T15:04:47;16.30;94.00
14798;DHT22;7490;63.708;20.368;2022-09-24T15:07:20;16.30;94.10
14798;DHT22;7490;63.708;20.368;2022-09-24T15:09:51;16.20;94.20
14798;DHT22;7490;63.708;20.368;2022-09-24T15:12:36;16.20;94.30
14798;DHT22;7490;63.708;20.368;2022-09-24T15:15:06;16.00;94.30
14798;DHT22;7490;63.708;20.368;2022-09-24T15:17:51;16.00;94.30
14798;DHT22;7490;63.708;20.368;2022-09-24T15:20:16;15.80;94.30
14798;DHT22;7490;63.708;20.368;2022-09-24T15:22:42;15.80;94.40
14798;DHT22;7490;63.708;20.368;2022-09-24T15:25:08;15.70;94.50
14798;DHT22;7490;63.708;20.368;2022-09-24T15:27:38;15.60;94.60
14798;DHT22;7490;63.708;20.368;2022-09-24T15:30:05;15.50;94.80
14798;DHT22;7490;63.708;20.368;2022-09-24T15:32:32;15.50;94.90
14798;DHT22;7490;63.708;20.368;2022-09-24T15:35:00;15.40;94.90
14798;DHT22;7490;63.708;20.368;2022-09-24T15:37:27;15.40;95.00
14798;DHT22;7490;63.708;20.368;2022-09-24T15:39:58;15.30;95.10
14798;DHT22;7490;63.708;20.368;2022-09-24T15:42:29;15.30;95.20
14798;DHT22;7490;63.708;20.368;2022-09-24T15:44:54;15.20;95.20
14798;DHT22;7490;63.708;20.368;2022-09-24T15:47:22;15.20;95.30
14798;DHT22;7490;63.708;20.368;2022-09-24T15:49:47;15.10;95.40
14798;DHT22;7490;63.708;20.368;2022-09-24T15:52:24;15.10;95.60
14798;DHT22;7490;63.708;20.368;2022-09-24T15:54:55;15.10;95.70
14798;DHT22;7490;63.708;20.368;2022-09-24T15:57:21;15.00;95.80
14798;DHT22;7490;63.708;20.368;2022-09-24T15:59:51;15.00;96.00
14798;DHT22;7490;63.708;20.368;2022-09-24T16:02:29;15.10;96.50
14798;DHT22;7490;63.708;20.368;2022-09-24T16:04:56;15.10;96.30
14798;DHT22;7490;63.708;20.368;2022-09-24T16:07:23;15.20;96.40
14798;DHT22;7490;63.708;20.368;2022-09-24T16:09:49;15.30;96.50
14798;DHT22;7490;63.708;20.368;2022-09-24T16:12:16;15.30;96.50
14798;DHT22;7490;63.708;20.368;2022-09-24T16:14:43;15.30;96.40
14798;DHT22;7490;63.708;20.368;2022-09-24T16:17:09;15.40;96.50
14798;DHT22;7490;63.708;20.368;2022-09-24T16:19:34;15.50;96.50
14798;DHT22;7490;63.708;20.368;2022-09-24T16:22:00;15.50;96.50
14798;DHT22;7490;63.708;20.368;2022-09-24T16:24:26;15.60;96.50
14798;DHT22;7490;63.708;20.368;2022-09-24T16:26:56;15.60;96.40
14798;DHT22;7490;63.708;20.368;2022-09-24T16:29:21;15.60;96.40
14798;DHT22;7490;63.708;20.368;2022-09-24T16:31:47;15.60;96.30
14798;DHT22;7490;63.708;20.368;2022-09-24T16:34:13;15.60;96.30
14798;DHT22;7490;63.708;20.368;2022-09-24T16:36:39;15.60;96.30
14798;DHT22;7490;63.708;20.368;2022-09-24T16:39:05;15.60;96.30
14798;DHT22;7490;63.708;20.368;2022-09-24T16:41:31;15.50;96.20
14798;DHT22;7490;63.708;20.368;2022-09-24T16:43:59;15.40;96.20
14798;DHT22;7490;63.708;20.368;2022-09-24T16:46:26;15.30;96.30
14798;DHT22;7490;63.708;20.368;2022-09-24T16:48:52;15.30;96.50
14798;DHT22;7490;63.708;20.368;2022-09-24T16:51:18;15.30;96.60
14798;DHT22;7490;63.708;20.368;2022-09-24T16:53:44;15.20;96.60
14798;DHT22;7490;63.708;20.368;2022-09-24T16:56:15;15.20;96.60
14798;DHT22;7490;63.708;20.368;2022-09-24T16:58:42;15.10;96.60
14798;DHT22;7490;63.708;20.368;2022-09-24T17:01:13;15.10;96.60
14798;DHT22;7490;63.708;20.368;2022-09-24T17:03:40;15.10;96.70
14798;DHT22;7490;63.708;20.368;2022-09-24T17:06:06;15.00;96.80
14798;DHT22;7490;63.708;20.368;2022-09-24T17:08:34;15.00;97.20
14798;DHT22;7490;63.708;20.368;2022-09-24T17:11:19;15.00;97.10
14798;DHT22;7490;63.708;20.368;2022-09-24T17:13:44;15.00;97.20
14798;DHT22;7490;63.708;20.368;2022-09-24T17:16:13;15.00;97.30
14798;DHT22;7490;63.708;20.368;2022-09-24T17:18:39;15.00;97.30
14798;DHT22;7490;63.708;20.368;2022-09-24T17:21:07;15.00;97.30
14798;DHT22;7490;63.708;20.368;2022-09-24T17:23:33;15.00;97.40
14798;DHT22;7490;63.708;20.368;2022-09-24T17:26:07;15.00;97.40
14798;DHT22;7490;63.708;20.368;2022-09-24T17:28:35;15.00;97.40
14798;DHT22;7490;63.708;20.368;2022-09-24T17:31:01;15.00;97.40
14798;DHT22;7490;63.708;20.368;2022-09-24T17:33:28;15.00;97.50
14798;DHT22;7490;63.708;20.368;2022-09-24T17:35:55;15.00;97.60
14798;DHT22;7490;63.708;20.368;2022-09-24T17:38:21;15.00;97.70
14798;DHT22;7490;63.708;20.368;2022-09-24T17:43:20;15.10;97.80
14798;DHT22;7490;63.708;20.368;2022-09-24T17:48:32;15.10;97.70
14798;DHT22;7490;63.708;20.368;2022-09-24T17:51:05;15.20;97.70
14798;DHT22;7490;63.708;20.368;2022-09-24T17:53:33;15.20;97.60
14798;DHT22;7490;63.708;20.368;2022-09-24T17:55:59;15.20;97.60
14798;DHT22;7490;63.708;20.368;2022-09-24T17:58:25;15.20;97.50